Time;durP1;ratioP1;P1;durP2;ratioP2;P2;SDS_P1;SDS_P2;PMS_P1;PMS_P2;Temp;Humidity;BMP_temperature;BMP_pressure;BME280_temperature;BME280_humidity;BME280_pressure;Samples;Min_cycle;Max_cycle;Signal;HPM_P1;HPM_P2
2021/08/01 00:01:01;;;;;;;6.82;3.33;;;16.90;99.90;;;;;;5030547;28;20025;-62
2021/08/01 00:03:27;;;;;;;6.13;3.00;;;16.90;99.90;;;;;;5033572;28;20040;-62
2021/08/01 00:05:53;;;;;;;12.45;6.28;;;16.80;99.90;;;;;;5032841;28;20033;-62
2021/08/01 00:08:19;;;;;;;6.30;3.45;;;16.80;99.90;;;;;;5033572;28;20037;-62
2021/08/01 00:10:45;;;;;;;4.57;3.10;;;16.70;99.90;;;;;;5032489;28;20040;-62
2021/08/01 00:13:10;;;;;;;9.98;3.60;;;16.70;99.90;;;;;;5031904;28;20021;-62
2021/08/01 00:15:36;;;;;;;3.63;3.30;;;16.70;99.90;;;;;;5032248;28;20049;-60
2021/08/01 00:18:02;;;;;;;5.68;3.05;;;16.60;99.90;;;;;;5033230;28;20031;-65
2021/08/01 00:20:29;;;;;;;7.15;3.55;;;16.60;99.90;;;;;;5032107;28;20029;-62
2021/08/01 00:22:55;;;;;;;7.13;3.30;;;16.60;99.90;;;;;;5032700;28;20117;-63
2021/08/01 00:25:20;;;;;;;8.05;3.95;;;16.60;99.90;;;;;;5032175;28;20499;-62
2021/08/01 00:27:46;;;;;;;6.00;3.88;;;16.60;99.90;;;;;;5033004;28;20124;-62
2021/08/01 00:30:12;;;;;;;5.38;3.83;;;16.60;99.90;;;;;;5030886;28;20741;-64
2021/08/01 00:32:38;;;;;;;5.20;3.70;;;16.60;99.90;;;;;;5032657;28;20505;-64
2021/08/01 00:35:06;;;;;;;7.68;3.50;;;16.60;99.90;;;;;;5031953;28;20479;-62
2021/08/01 00:37:32;;;;;;;5.60;3.90;;;16.60;99.90;;;;;;5039415;28;20039;-61
2021/08/01 00:39:58;;;;;;;6.22;3.80;;;16.70;99.90;;;;;;5034469;28;20029;-63
2021/08/01 00:42:24;;;;;;;5.88;3.80;;;16.70;99.90;;;;;;5032673;28;20022;-62
2021/08/01 00:44:50;;;;;;;5.20;3.90;;;16.70;99.90;;;;;;5032326;28;20029;-62
2021/08/01 00:47:16;;;;;;;10.10;3.60;;;16.80;99.90;;;;;;5024191;28;20022;-63
2021/08/01 00:49:42;;;;;;;4.28;3.28;;;16.80;99.90;;;;;;5032299;28;20117;-62
2021/08/01 00:52:08;;;;;;;5.53;3.45;;;16.90;99.90;;;;;;5031025;28;20543;-62
2021/08/01 00:54:34;;;;;;;7.85;3.60;;;16.90;99.90;;;;;;5031513;28;20041;-62
2021/08/01 00:57:06;;;;;;;6.90;4.13;;;16.90;99.90;;;;;;5029368;28;20087;-61
2021/08/01 00:59:33;;;;;;;6.40;3.45;;;16.90;99.90;;;;;;5031971;28;20033;-62
2021/08/01 01:02:16;;;;;;;6.38;4.07;;;16.90;99.90;;;;;;5031055;28;20482;-62
2021/08/01 01:04:55;;;;;;;8.70;4.28;;;16.80;99.90;;;;;;5020093;28;20039;-61
2021/08/01 01:07:34;;;;;;;5.85;3.70;;;16.80;99.90;;;;;;5031242;28;20091;-60
2021/08/01 01:10:08;;;;;;;5.65;3.50;;;16.80;99.90;;;;;;5031677;28;20044;-60
2021/08/01 01:12:44;;;;;;;7.03;3.60;;;16.80;99.90;;;;;;5031600;28;20040;-62
2021/08/01 01:15:16;;;;;;;4.82;3.75;;;16.80;99.90;;;;;;5031432;28;20045;-63
2021/08/01 01:17:46;;;;;;;5.15;3.90;;;16.80;99.90;;;;;;5031884;28;20113;-63
2021/08/01 01:20:30;;;;;;;9.55;4.03;;;16.80;99.90;;;;;;5031790;28;20076;-64
2021/08/01 01:23:25;;;;;;;6.45;3.95;;;16.80;99.90;;;;;;5029641;28;20033;-63
2021/08/01 01:26:10;;;;;;;8.65;4.00;;;16.70;99.90;;;;;;5030796;28;20053;-61
2021/08/01 01:28:58;;;;;;;7.15;3.97;;;16.70;99.90;;;;;;5030227;28;20068;-62
2021/08/01 01:31:39;;;;;;;9.45;3.95;;;16.70;99.90;;;;;;5029779;28;20037;-63
2021/08/01 01:34:22;;;;;;;9.38;4.40;;;16.70;99.90;;;;;;5031575;28;20033;-61
2021/08/01 01:36:50;;;;;;;5.97;3.97;;;16.70;99.90;;;;;;5018118;28;20084;-62
2021/08/01 01:39:18;;;;;;;7.28;4.00;;;16.60;99.90;;;;;;5025607;28;20033;-63
2021/08/01 01:41:46;;;;;;;7.80;4.40;;;16.60;99.90;;;;;;5030466;28;20025;-62
2021/08/01 01:44:12;;;;;;;7.55;4.65;;;16.60;99.90;;;;;;5031543;28;20034;-63
2021/08/01 01:46:39;;;;;;;9.63;4.63;;;16.60;99.90;;;;;;5030419;28;20025;-63
2021/08/01 01:49:08;;;;;;;9.90;4.40;;;16.60;99.90;;;;;;5022566;28;20021;-65
2021/08/01 01:51:35;;;;;;;10.43;4.38;;;16.60;99.90;;;;;;5028865;28;20056;-62
2021/08/01 01:54:02;;;;;;;5.85;4.53;;;16.60;99.90;;;;;;5030192;28;20407;-63
2021/08/01 01:56:31;;;;;;;7.75;4.30;;;16.60;99.90;;;;;;5030410;28;20049;-63
2021/08/01 01:58:58;;;;;;;6.15;4.10;;;16.60;99.90;;;;;;5028006;28;20483;-65
2021/08/01 02:01:24;;;;;;;5.97;4.30;;;16.60;99.90;;;;;;5029807;28;20032;-61
2021/08/01 02:03:51;;;;;;;6.93;4.00;;;16.60;99.90;;;;;;5031386;28;20029;-62
2021/08/01 02:06:17;;;;;;;11.27;4.32;;;16.60;99.90;;;;;;5030378;28;20079;-60
2021/08/01 02:08:57;;;;;;;5.82;3.95;;;16.60;99.90;;;;;;5030757;28;20032;-63
2021/08/01 02:11:29;;;;;;;7.70;3.97;;;16.60;99.90;;;;;;5029980;28;20034;-64
2021/08/01 02:14:09;;;;;;;5.57;3.83;;;16.60;99.90;;;;;;5019877;28;20063;-62
2021/08/01 02:16:39;;;;;;;10.63;4.07;;;16.60;99.90;;;;;;5030161;28;20104;-60
2021/08/01 02:19:08;;;;;;;6.47;4.07;;;16.60;99.90;;;;;;5030883;28;20025;-62
2021/08/01 02:21:35;;;;;;;11.13;3.90;;;16.60;99.90;;;;;;5029417;28;20021;-61
2021/08/01 02:24:02;;;;;;;6.68;4.18;;;16.50;99.90;;;;;;5030851;28;20108;-63
2021/08/01 02:26:29;;;;;;;7.35;3.83;;;16.50;99.90;;;;;;5029423;28;20463;-62
2021/08/01 02:28:56;;;;;;;9.43;3.80;;;16.40;99.90;;;;;;5029553;28;20047;-61
2021/08/01 02:31:23;;;;;;;5.47;3.92;;;16.30;99.90;;;;;;5030062;28;20060;-61
2021/08/01 02:33:50;;;;;;;6.78;3.78;;;16.30;99.90;;;;;;5030709;28;20434;-61
2021/08/01 02:36:18;;;;;;;7.45;4.22;;;16.30;99.90;;;;;;5030094;28;20387;-65
2021/08/01 02:38:46;;;;;;;11.75;4.43;;;16.20;99.90;;;;;;5030283;28;20113;-62
2021/08/01 02:41:31;;;;;;;5.35;3.60;;;16.10;99.90;;;;;;5026803;28;20450;-63
2021/08/01 02:44:01;;;;;;;7.75;4.03;;;16.10;99.90;;;;;;5030834;28;20167;-62
2021/08/01 02:46:30;;;;;;;7.07;3.80;;;16.00;99.90;;;;;;5029664;28;20037;-63
2021/08/01 02:48:59;;;;;;;6.90;3.72;;;16.00;99.90;;;;;;5030223;28;20372;-64
2021/08/01 02:51:28;;;;;;;5.32;3.67;;;16.00;99.90;;;;;;5029643;28;20100;-63
2021/08/01 02:53:55;;;;;;;7.05;3.72;;;15.90;99.90;;;;;;5030095;28;20365;-65
2021/08/01 02:56:23;;;;;;;10.45;3.75;;;15.90;99.90;;;;;;5022178;28;20029;-62
2021/08/01 02:58:51;;;;;;;10.18;4.20;;;15.90;99.90;;;;;;5029712;28;20411;-62
2021/08/01 03:01:17;;;;;;;8.32;4.03;;;15.90;99.90;;;;;;5029616;28;20383;-61
2021/08/01 03:03:44;;;;;;;7.25;3.80;;;15.90;99.90;;;;;;5029542;28;20396;-64
2021/08/01 03:06:10;;;;;;;5.00;3.50;;;15.90;99.90;;;;;;5024905;28;20034;-63
2021/08/01 03:08:36;;;;;;;6.78;3.63;;;15.80;99.90;;;;;;5029271;28;20037;-60
2021/08/01 03:11:02;;;;;;;7.60;3.50;;;15.70;99.90;;;;;;5024615;28;20484;-63
2021/08/01 03:13:28;;;;;;;6.75;4.38;;;15.70;99.90;;;;;;5015935;28;20026;-62
2021/08/01 03:15:53;;;;;;;7.72;4.00;;;15.60;99.90;;;;;;5024161;28;20140;-63
2021/08/01 03:18:19;;;;;;;9.43;3.83;;;15.50;99.90;;;;;;5029802;28;20030;-62
2021/08/01 03:20:45;;;;;;;6.43;3.90;;;15.50;99.90;;;;;;5029747;28;20036;-62
2021/08/01 03:23:11;;;;;;;8.38;3.47;;;15.40;99.90;;;;;;5027882;28;20117;-64
2021/08/01 03:25:38;;;;;;;6.22;3.90;;;15.40;99.90;;;;;;5030230;28;20029;-62
2021/08/01 03:28:04;;;;;;;7.90;3.72;;;15.30;99.90;;;;;;5028968;28;20148;-61
2021/08/01 03:30:30;;;;;;;8.18;4.15;;;15.30;99.90;;;;;;5026765;28;20052;-59
2021/08/01 03:32:56;;;;;;;9.10;4.15;;;15.30;99.90;;;;;;5029938;28;20099;-63
2021/08/01 03:35:22;;;;;;;7.97;3.72;;;15.20;99.90;;;;;;5032840;28;20045;-62
2021/08/01 03:37:48;;;;;;;9.82;3.75;;;15.20;99.90;;;;;;5032735;28;20479;-63
2021/08/01 03:40:15;;;;;;;8.68;4.18;;;15.10;99.90;;;;;;5034050;28;20107;-62
2021/08/01 03:42:40;;;;;;;10.02;4.38;;;15.10;99.90;;;;;;5033023;28;20032;-62
2021/08/01 03:45:11;;;;;;;8.40;4.30;;;15.10;99.90;;;;;;5033152;28;20037;-61
2021/08/01 03:47:37;;;;;;;9.77;4.03;;;15.10;99.90;;;;;;5030357;28;20116;-61
2021/08/01 03:50:04;;;;;;;10.52;4.57;;;15.10;99.90;;;;;;5034767;28;20021;-61
2021/08/01 03:52:30;;;;;;;11.15;4.53;;;15.10;99.90;;;;;;5027243;28;20034;-62
2021/08/01 03:54:56;;;;;;;8.32;4.30;;;15.00;99.90;;;;;;5026706;28;20049;-65
2021/08/01 03:57:21;;;;;;;7.38;4.53;;;15.00;99.90;;;;;;5026542;28;20022;-60
2021/08/01 03:59:47;;;;;;;9.07;4.22;;;15.00;99.90;;;;;;5027408;28;20065;-61
2021/08/01 04:02:13;;;;;;;12.68;4.78;;;14.90;99.90;;;;;;5032504;28;20398;-61
2021/08/01 04:04:39;;;;;;;6.97;4.50;;;14.90;99.90;;;;;;5033830;28;20044;-62
2021/08/01 04:07:05;;;;;;;12.98;4.65;;;14.80;99.90;;;;;;5031836;28;20018;-61
2021/08/01 04:09:31;;;;;;;10.82;4.28;;;14.70;99.90;;;;;;5024998;28;20038;-61
2021/08/01 04:11:57;;;;;;;4.90;4.40;;;14.70;99.90;;;;;;5030851;28;20040;-62
2021/08/01 04:14:24;;;;;;;7.75;4.60;;;14.70;99.90;;;;;;5032340;28;20037;-62
2021/08/01 04:16:50;;;;;;;7.68;4.65;;;14.70;99.90;;;;;;5024056;28;20032;-61
2021/08/01 04:19:16;;;;;;;10.68;4.13;;;14.70;99.90;;;;;;5025766;28;20449;-61
2021/08/01 04:21:43;;;;;;;12.45;4.22;;;14.70;99.90;;;;;;5032191;28;20140;-62
2021/08/01 04:24:10;;;;;;;6.85;4.20;;;14.60;99.90;;;;;;5032696;28;20039;-64
2021/08/01 04:26:36;;;;;;;12.30;4.40;;;14.60;99.90;;;;;;5029749;28;20112;-62
2021/08/01 04:29:03;;;;;;;11.32;4.93;;;14.50;99.90;;;;;;5030478;28;20030;-63
2021/08/01 04:31:28;;;;;;;7.15;3.92;;;14.50;99.90;;;;;;5032087;28;20037;-61
2021/08/01 04:33:54;;;;;;;9.70;4.43;;;14.40;99.90;;;;;;5032515;28;20025;-64
2021/08/01 04:36:20;;;;;;;6.72;4.20;;;14.30;99.90;;;;;;5032032;28;20476;-60
2021/08/01 04:38:45;;;;;;;12.32;4.63;;;14.40;99.90;;;;;;5031813;28;20076;-61
2021/08/01 04:41:11;;;;;;;9.20;4.32;;;14.30;99.90;;;;;;5033169;28;20025;-62
2021/08/01 04:43:37;;;;;;;8.77;4.55;;;14.20;99.90;;;;;;5031600;28;20033;-61
2021/08/01 04:46:02;;;;;;;8.88;4.65;;;14.20;99.90;;;;;;5032293;28;20026;-62
2021/08/01 04:48:28;;;;;;;6.63;4.28;;;14.20;99.90;;;;;;5031724;28;20033;-62
2021/08/01 04:50:54;;;;;;;7.40;4.47;;;14.10;99.90;;;;;;5032657;28;20200;-63
2021/08/01 04:53:20;;;;;;;8.63;4.40;;;14.10;99.90;;;;;;5031665;28;20488;-63
2021/08/01 04:55:45;;;;;;;13.30;4.60;;;14.10;99.90;;;;;;5032132;28;20052;-63
2021/08/01 04:58:11;;;;;;;11.20;4.40;;;14.20;99.90;;;;;;5031420;28;20048;-61
2021/08/01 05:00:37;;;;;;;8.63;4.80;;;14.20;99.90;;;;;;5031967;28;20038;-62
2021/08/01 05:03:04;;;;;;;14.77;5.10;;;14.20;99.90;;;;;;5031794;28;20048;-62
2021/08/01 05:05:37;;;;;;;8.48;4.60;;;14.10;99.90;;;;;;5032333;28;20041;-63
2021/08/01 05:08:04;;;;;;;8.43;4.40;;;14.10;99.90;;;;;;5030972;28;20029;-63
2021/08/01 05:10:30;;;;;;;11.15;4.60;;;14.10;99.90;;;;;;5032275;28;20036;-62
2021/08/01 05:12:55;;;;;;;8.05;4.60;;;14.10;99.90;;;;;;5026164;28;20033;-62
2021/08/01 05:15:21;;;;;;;10.18;4.82;;;14.10;99.90;;;;;;5031685;28;20029;-61
2021/08/01 05:17:47;;;;;;;7.47;4.78;;;14.10;99.90;;;;;;5030706;28;20392;-61
2021/08/01 05:20:13;;;;;;;10.68;4.97;;;14.10;99.90;;;;;;5031628;28;20029;-63
2021/08/01 05:22:39;;;;;;;10.48;5.20;;;14.10;99.90;;;;;;5030870;28;20037;-62
2021/08/01 05:25:05;;;;;;;10.05;4.82;;;14.10;99.90;;;;;;5032023;28;20030;-62
2021/08/01 05:27:31;;;;;;;14.75;5.75;;;14.20;99.90;;;;;;5029951;28;20057;-61
2021/08/01 05:29:57;;;;;;;12.60;5.45;;;14.20;99.90;;;;;;5032071;28;20626;-62
2021/08/01 05:32:22;;;;;;;8.38;4.60;;;14.20;99.90;;;;;;5030914;28;20108;-63
2021/08/01 05:34:48;;;;;;;15.35;5.22;;;14.20;99.90;;;;;;5031423;28;20313;-61
2021/08/01 05:37:14;;;;;;;10.27;5.13;;;14.20;99.90;;;;;;5031062;28;20026;-61
2021/08/01 05:39:40;;;;;;;13.55;4.90;;;14.30;99.90;;;;;;5031735;28;20060;-62
2021/08/01 05:42:05;;;;;;;7.03;4.90;;;14.30;99.90;;;;;;5031028;28;20089;-62
2021/08/01 05:44:34;;;;;;;7.22;4.95;;;14.30;99.90;;;;;;5031443;28;20030;-62
2021/08/01 05:47:00;;;;;;;11.35;4.85;;;14.40;99.90;;;;;;5030932;28;20033;-63
2021/08/01 05:49:26;;;;;;;16.35;4.90;;;14.50;99.90;;;;;;5031520;28;20033;-62
2021/08/01 05:51:52;;;;;;;13.50;5.57;;;14.60;99.90;;;;;;5031499;28;20517;-62
2021/08/01 05:54:17;;;;;;;14.63;6.43;;;14.90;99.90;;;;;;5030406;28;20037;-62
2021/08/01 05:56:43;;;;;;;9.05;5.57;;;15.20;99.90;;;;;;5023684;28;20099;-62
2021/08/01 05:59:09;;;;;;;17.52;5.85;;;15.30;99.90;;;;;;5030082;28;20467;-63
2021/08/01 06:01:34;;;;;;;9.05;5.32;;;15.40;99.90;;;;;;5017856;28;20061;-62
2021/08/01 06:04:00;;;;;;;10.82;5.68;;;15.50;99.90;;;;;;5022573;28;20033;-63
2021/08/01 06:06:26;;;;;;;12.10;5.88;;;15.40;99.90;;;;;;5031066;28;20133;-64
2021/08/01 06:08:52;;;;;;;14.77;5.90;;;15.50;99.90;;;;;;5030266;28;20029;-64
2021/08/01 06:11:21;;;;;;;12.15;5.75;;;15.50;99.90;;;;;;5030635;28;20074;-64
2021/08/01 06:13:47;;;;;;;11.40;5.72;;;15.50;99.90;;;;;;5030121;28;20036;-63
2021/08/01 06:16:14;;;;;;;10.40;5.13;;;15.70;99.90;;;;;;5030568;28;20034;-61
2021/08/01 06:18:40;;;;;;;11.48;5.70;;;15.80;99.90;;;;;;5029649;28;20041;-62
2021/08/01 06:21:18;;;;;;;17.20;5.85;;;15.90;99.90;;;;;;5030090;28;20029;-62
2021/08/01 06:23:46;;;;;;;13.98;5.63;;;15.90;99.90;;;;;;5030436;28;20129;-61
2021/08/01 06:26:13;;;;;;;14.10;5.53;;;15.90;99.90;;;;;;5030676;28;20041;-62
2021/08/01 06:28:39;;;;;;;13.65;5.82;;;15.90;99.90;;;;;;5028686;28;20060;-65
2021/08/01 06:31:05;;;;;;;11.43;6.28;;;16.00;99.90;;;;;;5030659;28;20029;-61
2021/08/01 06:33:32;;;;;;;28.67;7.65;;;16.00;99.90;;;;;;5030300;28;20037;-63
2021/08/01 06:35:58;;;;;;;24.95;6.93;;;16.10;99.90;;;;;;5021610;28;20045;-62
2021/08/01 06:38:24;;;;;;;12.25;6.57;;;16.20;99.90;;;;;;5025196;28;20026;-63
2021/08/01 06:40:50;;;;;;;10.75;5.80;;;16.20;99.90;;;;;;5030697;28;20083;-62
2021/08/01 06:43:16;;;;;;;11.07;6.72;;;16.40;99.90;;;;;;5030026;28;20044;-62
2021/08/01 06:45:42;;;;;;;11.80;7.15;;;16.50;99.90;;;;;;5029817;28;20038;-64
2021/08/01 06:48:08;;;;;;;15.55;6.40;;;16.80;99.90;;;;;;5027830;28;20459;-63
2021/08/01 06:50:37;;;;;;;13.95;5.95;;;17.30;99.90;;;;;;5025192;28;20034;-62
2021/08/01 06:53:03;;;;;;;7.38;5.13;;;17.50;99.90;;;;;;5028939;28;20021;-64
2021/08/01 06:55:30;;;;;;;8.07;5.15;;;17.40;99.90;;;;;;5030061;28;20549;-62
2021/08/01 06:57:56;;;;;;;10.93;5.90;;;17.50;99.90;;;;;;5029697;28;20036;-61
2021/08/01 07:00:22;;;;;;;10.18;6.13;;;17.40;99.90;;;;;;5030668;28;20026;-62
2021/08/01 07:02:55;;;;;;;14.43;7.28;;;17.30;99.90;;;;;;5029389;28;20403;-62
2021/08/01 07:05:21;;;;;;;11.48;6.13;;;17.20;99.90;;;;;;5030766;28;20113;-62
2021/08/01 07:07:47;;;;;;;10.57;6.93;;;17.30;99.90;;;;;;5029530;28;20095;-63
2021/08/01 07:10:13;;;;;;;12.32;6.35;;;17.20;99.90;;;;;;5032494;28;20030;-61
2021/08/01 07:12:41;;;;;;;12.95;6.85;;;17.20;99.90;;;;;;5033312;28;20523;-61
2021/08/01 07:15:13;;;;;;;13.63;6.45;;;17.10;99.90;;;;;;5032221;28;20055;-63
2021/08/01 07:17:39;;;;;;;8.55;6.20;;;17.10;99.90;;;;;;5033028;28;20044;-61
2021/08/01 07:20:09;;;;;;;12.48;6.47;;;17.20;99.90;;;;;;5032845;28;20032;-61
2021/08/01 07:22:35;;;;;;;12.88;5.68;;;17.20;99.90;;;;;;5020035;28;20030;-61
2021/08/01 07:25:03;;;;;;;10.40;5.97;;;17.20;99.90;;;;;;5054359;28;20376;-61
2021/08/01 07:27:28;;;;;;;9.40;5.40;;;17.30;99.90;;;;;;5033023;28;20049;-60
2021/08/01 07:29:54;;;;;;;13.07;5.80;;;17.20;99.90;;;;;;5031656;28;20021;-62
2021/08/01 07:32:20;;;;;;;16.05;5.68;;;17.20;99.90;;;;;;5034068;28;20104;-61
2021/08/01 07:34:47;;;;;;;14.18;5.30;;;17.20;99.90;;;;;;5033238;28;20077;-61
2021/08/01 07:37:13;;;;;;;9.25;5.70;;;17.20;99.90;;;;;;5034333;28;20013;-62
2021/08/01 07:39:39;;;;;;;9.07;5.00;;;17.20;99.90;;;;;;5033427;28;20033;-61
2021/08/01 07:42:05;;;;;;;11.55;5.30;;;17.10;99.90;;;;;;5033821;28;20040;-63
2021/08/01 07:44:35;;;;;;;8.50;5.40;;;17.20;99.90;;;;;;5032802;28;20034;-61
2021/08/01 07:47:01;;;;;;;68.68;9.65;;;17.10;99.90;;;;;;5033110;28;20029;-60
2021/08/01 07:49:26;;;;;;;20.85;6.18;;;17.10;99.90;;;;;;5032958;28;20411;-62
2021/08/01 07:51:52;;;;;;;9.82;5.45;;;17.20;99.90;;;;;;5028339;28;20464;-65
2021/08/01 07:54:17;;;;;;;12.55;5.25;;;17.20;99.90;;;;;;5032412;28;20038;-62
2021/08/01 07:56:43;;;;;;;14.38;5.45;;;17.30;99.90;;;;;;5033274;28;20079;-61
2021/08/01 07:59:09;;;;;;;9.60;5.22;;;17.20;99.90;;;;;;5032596;28;20044;-62
2021/08/01 08:01:34;;;;;;;10.25;5.53;;;17.30;99.90;;;;;;5032981;28;20167;-64
2021/08/01 08:04:00;;;;;;;11.30;5.68;;;17.20;99.90;;;;;;5032315;28;20030;-62
2021/08/01 08:06:26;;;;;;;13.07;5.88;;;17.30;99.90;;;;;;5033261;28;20462;-61
2021/08/01 08:08:51;;;;;;;10.27;5.55;;;17.40;99.90;;;;;;5032623;28;20038;-61
2021/08/01 08:11:17;;;;;;;14.93;6.32;;;17.50;99.90;;;;;;5033807;28;20080;-61
2021/08/01 08:13:43;;;;;;;13.45;7.32;;;17.60;99.90;;;;;;5032635;28;20029;-61
2021/08/01 08:16:09;;;;;;;11.02;6.63;;;17.70;99.90;;;;;;5032589;28;20227;-60
2021/08/01 08:18:34;;;;;;;13.98;7.68;;;17.80;99.90;;;;;;5032355;28;20452;-61
2021/08/01 08:21:00;;;;;;;11.15;6.82;;;17.80;99.90;;;;;;5031408;28;20219;-61
2021/08/01 08:23:26;;;;;;;17.70;6.70;;;17.70;99.90;;;;;;5025212;28;20095;-63
2021/08/01 08:25:54;;;;;;;13.02;6.35;;;17.70;99.90;;;;;;5023416;28;20033;-63
2021/08/01 08:28:20;;;;;;;14.65;6.85;;;17.80;99.90;;;;;;5032331;28;20568;-61
2021/08/01 08:30:45;;;;;;;13.25;6.07;;;17.80;99.90;;;;;;5031754;28;20133;-64
2021/08/01 08:33:12;;;;;;;10.35;6.50;;;17.90;99.90;;;;;;5032386;28;20037;-63
2021/08/01 08:35:40;;;;;;;12.00;6.40;;;18.00;99.90;;;;;;5032622;28;20033;-61
2021/08/01 08:38:05;;;;;;;12.20;6.32;;;17.90;99.90;;;;;;5032983;28;20109;-63
2021/08/01 08:40:37;;;;;;;13.30;6.97;;;17.80;99.90;;;;;;5028876;28;20432;-62
2021/08/01 08:43:03;;;;;;;14.93;6.57;;;17.70;99.90;;;;;;5014676;28;20061;-62
2021/08/01 08:45:29;;;;;;;14.38;6.18;;;17.70;99.90;;;;;;5031836;28;20152;-62
2021/08/01 08:47:56;;;;;;;7.90;5.50;;;17.70;99.90;;;;;;5032812;28;20033;-63
2021/08/01 08:50:22;;;;;;;11.13;5.55;;;17.70;99.90;;;;;;5029733;28;20048;-62
2021/08/01 08:52:53;;;;;;;7.03;4.38;;;17.70;99.90;;;;;;5031117;28;20029;-62
2021/08/01 08:55:24;;;;;;;5.95;4.35;;;17.60;99.90;;;;;;5030369;28;20463;-62
2021/08/01 08:58:00;;;;;;;8.20;4.90;;;17.50;99.90;;;;;;5020877;28;20061;-62
2021/08/01 09:00:27;;;;;;;6.20;4.88;;;17.50;99.90;;;;;;5021331;28;20095;-60
2021/08/01 09:02:53;;;;;;;6.25;4.53;;;17.50;99.90;;;;;;5031177;28;20076;-62
2021/08/01 09:05:18;;;;;;;7.72;5.60;;;17.50;99.90;;;;;;5031198;28;20033;-63
2021/08/01 09:07:44;;;;;;;10.10;5.72;;;17.50;99.90;;;;;;5032091;28;20117;-61
2021/08/01 09:10:11;;;;;;;8.70;4.22;;;17.50;99.90;;;;;;5025224;28;20030;-61
2021/08/01 09:12:45;;;;;;;9.38;4.15;;;17.60;99.90;;;;;;5028183;28;20496;-61
2021/08/01 09:15:24;;;;;;;6.88;5.45;;;17.50;99.90;;;;;;5031171;28;20038;-61
2021/08/01 09:17:54;;;;;;;11.85;6.82;;;17.40;99.90;;;;;;5019245;28;20389;-61
2021/08/01 09:20:26;;;;;;;15.35;7.32;;;17.40;99.90;;;;;;5031337;28;20029;-61
2021/08/01 09:23:01;;;;;;;13.25;6.75;;;17.50;99.90;;;;;;5030435;28;20506;-60
2021/08/01 09:25:28;;;;;;;;;;;17.50;99.90;;;;;;5031674;28;20458;-62
2021/08/01 09:28:17;;;;;;;11.40;4.32;;;17.50;99.90;;;;;;5032025;28;19971;-61
2021/08/01 09:30:47;;;;;;;12.65;5.40;;;17.60;99.90;;;;;;5017304;28;20022;-64
2021/08/01 09:33:16;;;;;;;9.40;5.30;;;17.60;99.90;;;;;;5029286;28;20483;-61
2021/08/01 09:35:43;;;;;;;10.15;4.63;;;17.70;99.90;;;;;;5019494;28;20038;-63
2021/08/01 09:38:08;;;;;;;8.93;4.60;;;17.70;99.90;;;;;;5021364;28;20104;-62
2021/08/01 09:40:35;;;;;;;8.27;4.30;;;17.80;99.90;;;;;;5029293;28;20042;-61
2021/08/01 09:43:12;;;;;;;7.05;4.45;;;17.80;99.90;;;;;;5032121;28;20030;-60
2021/08/01 09:45:38;;;;;;;13.85;5.50;;;17.80;99.90;;;;;;5030592;28;20045;-62
2021/08/01 09:48:33;;;;;;;12.55;4.97;;;17.90;99.90;;;;;;5031574;28;20490;-60
2021/08/01 09:51:07;;;;;;;9.65;4.85;;;17.90;99.90;;;;;;5022520;28;20246;-60
2021/08/01 09:53:34;;;;;;;9.68;4.90;;;18.10;99.90;;;;;;5030456;28;20033;-61
2021/08/01 09:56:32;;;;;;;8.50;5.75;;;18.30;99.90;;;;;;5030558;28;20817;-63
2021/08/01 09:58:59;;;;;;;10.20;4.95;;;18.40;99.90;;;;;;5013068;28;20057;-60
2021/08/01 10:01:26;;;;;;;5.75;3.80;;;18.60;99.90;;;;;;5029531;28;20037;-61
2021/08/01 10:03:52;;;;;;;6.45;4.18;;;18.80;99.90;;;;;;5029793;28;20151;-63
2021/08/01 10:06:19;;;;;;;8.32;4.40;;;19.20;99.90;;;;;;5031148;28;20040;-62
2021/08/01 10:08:46;;;;;;;7.38;4.32;;;19.50;99.90;;;;;;5031499;28;20037;-61
2021/08/01 10:11:27;;;;;;;9.45;4.75;;;19.50;99.90;;;;;;5041441;28;20064;-62
2021/08/01 10:13:55;;;;;;;9.65;4.10;;;19.60;99.90;;;;;;5029505;28;20079;-65
2021/08/01 10:16:22;;;;;;;8.32;4.47;;;19.90;99.90;;;;;;5031073;28;20033;-62
2021/08/01 10:18:50;;;;;;;10.48;4.28;;;20.00;99.90;;;;;;5023021;28;20045;-64
2021/08/01 10:21:20;;;;;;;10.48;4.75;;;20.10;99.90;;;;;;5031106;28;20021;-62
2021/08/01 10:23:56;;;;;;;7.40;4.32;;;20.00;99.90;;;;;;5029144;28;20028;-62
2021/08/01 10:26:26;;;;;;;8.25;3.67;;;19.90;99.90;;;;;;5030577;28;20025;-60
2021/08/01 10:28:55;;;;;;;8.82;4.30;;;19.90;99.90;;;;;;5028036;28;20049;-62
2021/08/01 10:31:43;;;;;;;8.98;4.10;;;19.90;99.90;;;;;;5030198;28;20035;-61
2021/08/01 10:34:19;;;;;;;7.85;4.25;;;19.90;99.90;;;;;;5029213;28;20435;-63
2021/08/01 10:36:48;;;;;;;9.23;4.25;;;19.80;99.90;;;;;;5022251;28;20506;-63
2021/08/01 10:39:17;;;;;;;6.43;3.50;;;19.80;99.90;;;;;;5029559;28;20101;-62
2021/08/01 10:41:43;;;;;;;8.68;4.10;;;19.80;99.90;;;;;;5030356;28;20029;-61
2021/08/01 10:44:11;;;;;;;7.35;3.40;;;19.90;99.90;;;;;;5025488;28;20029;-61
2021/08/01 10:46:41;;;;;;;10.82;3.75;;;19.70;99.90;;;;;;5030674;28;20033;-63
2021/08/01 10:49:10;;;;;;;9.55;3.70;;;19.70;99.90;;;;;;5024932;28;20136;-62
2021/08/01 10:51:37;;;;;;;7.82;3.75;;;19.80;99.90;;;;;;5028378;28;20036;-62
2021/08/01 10:54:26;;;;;;;7.10;3.55;;;19.70;99.90;;;;;;5028467;28;20029;-63
2021/08/01 10:57:14;;;;;;;5.68;3.60;;;19.60;99.90;;;;;;5009744;28;20127;-62
2021/08/01 10:59:46;;;;;;;6.15;3.58;;;19.30;99.90;;;;;;5036436;28;20029;-62
2021/08/01 11:02:19;;;;;;;11.98;3.97;;;19.20;99.90;;;;;;5029926;28;20025;-62
2021/08/01 11:04:46;;;;;;;15.02;4.40;;;19.20;99.90;;;;;;5028267;28;20037;-62
2021/08/01 11:07:32;;;;;;;5.60;3.80;;;19.20;99.90;;;;;;5028399;28;20037;-63
2021/08/01 11:10:04;;;;;;;7.55;3.90;;;19.10;99.90;;;;;;5029365;28;20460;-61
2021/08/01 11:12:32;;;;;;;10.95;4.28;;;19.10;99.90;;;;;;5030380;28;20033;-63
2021/08/01 11:14:59;;;;;;;7.93;4.60;;;19.30;99.90;;;;;;5029421;28;20029;-60
2021/08/01 11:17:43;;;;;;;13.02;5.80;;;19.30;99.90;;;;;;5030166;28;20429;-62
2021/08/01 11:20:23;;;;;;;4.80;4.40;;;19.50;99.90;;;;;;5029108;28;20393;-63
2021/08/01 11:22:53;;;;;;;5.30;4.32;;;19.50;99.90;;;;;;5025930;28;20510;-61
2021/08/01 11:25:21;;;;;;;5.40;4.00;;;19.50;99.90;;;;;;5029358;28;20185;-61
2021/08/01 11:28:15;;;;;;;4.72;4.00;;;19.70;99.90;;;;;;5030338;28;20092;-63
2021/08/01 11:30:52;;;;;;;6.00;3.72;;;19.60;99.90;;;;;;5027903;28;20029;-61
2021/08/01 11:33:38;;;;;;;6.07;3.17;;;19.70;99.90;;;;;;5030029;28;20022;-63
2021/08/01 11:36:10;;;;;;;7.82;3.65;;;19.60;99.90;;;;;;5028790;28;20044;-61
2021/08/01 11:38:48;;;;;;;8.73;4.97;;;19.80;99.90;;;;;;5029434;28;20048;-63
2021/08/01 11:41:29;;;;;;;6.85;4.10;;;19.80;99.90;;;;;;5029548;28;20465;-64
2021/08/01 11:44:07;;;;;;;5.72;4.65;;;19.70;99.90;;;;;;5019503;28;20080;-63
2021/08/01 11:46:45;;;;;;;5.53;4.35;;;19.80;99.90;;;;;;5028776;28;20034;-62
2021/08/01 11:49:12;;;;;;;6.97;4.53;;;19.80;99.90;;;;;;5029840;28;20029;-61
2021/08/01 11:51:42;;;;;;;9.75;4.80;;;19.90;99.90;;;;;;5028953;28;20033;-61
2021/08/01 11:54:12;;;;;;;5.90;5.18;;;20.00;99.90;;;;;;5029932;28;20037;-62
2021/08/01 11:56:41;;;;;;;6.35;5.13;;;20.10;99.90;;;;;;5030451;28;20698;-63
2021/08/01 11:59:08;;;;;;;6.80;6.10;;;20.10;99.90;;;;;;5033612;28;20608;-64
2021/08/01 12:01:35;;;;;;;8.02;6.13;;;20.30;99.90;;;;;;5031882;28;20502;-62
2021/08/01 12:04:11;;;;;;;8.02;6.28;;;20.40;99.90;;;;;;5032715;28;20104;-63
2021/08/01 12:06:43;;;;;;;7.35;6.63;;;20.50;99.90;;;;;;5032637;28;20029;-62
2021/08/01 12:09:20;;;;;;;9.57;6.40;;;20.60;99.90;;;;;;5033101;28;20580;-64
2021/08/01 12:11:51;;;;;;;11.55;6.90;;;20.50;99.90;;;;;;5023922;28;20040;-60
2021/08/01 12:14:18;;;;;;;9.38;6.97;;;20.50;99.90;;;;;;5016509;28;20033;-62
2021/08/01 12:17:09;;;;;;;8.48;6.90;;;20.60;99.90;;;;;;5030211;28;20026;-60
2021/08/01 12:19:39;;;;;;;9.85;6.65;;;20.70;99.90;;;;;;5029554;28;20021;-62
2021/08/01 12:22:12;;;;;;;7.53;6.35;;;20.80;99.90;;;;;;5028176;28;20038;-65
2021/08/01 12:24:44;;;;;;;9.52;6.53;;;21.10;99.90;;;;;;5022435;28;20072;-61
2021/08/01 12:27:15;;;;;;;8.20;6.45;;;20.90;99.90;;;;;;5031718;28;20103;-61
2021/08/01 12:29:45;;;;;;;9.27;6.03;;;21.30;99.90;;;;;;5026460;28;20033;-61
2021/08/01 12:32:30;;;;;;;7.85;5.50;;;21.50;99.90;;;;;;5031256;28;20033;-64
2021/08/01 12:35:12;;;;;;;6.55;5.35;;;21.50;99.90;;;;;;5022244;28;20124;-60
2021/08/01 12:37:59;;;;;;;6.88;5.40;;;21.40;99.90;;;;;;5023000;28;20404;-64
2021/08/01 12:40:34;;;;;;;8.50;5.30;;;21.30;99.90;;;;;;5030067;28;20025;-62
2021/08/01 12:43:08;;;;;;;7.93;5.28;;;21.20;99.90;;;;;;5026949;28;20068;-62
2021/08/01 12:45:36;;;;;;;7.00;4.80;;;21.10;99.90;;;;;;5024696;28;20029;-61
2021/08/01 12:48:07;;;;;;;4.50;3.50;;;21.10;99.90;;;;;;5030491;28;20025;-62
2021/08/01 12:50:33;;;;;;;3.28;2.97;;;21.10;99.90;;;;;;5032275;28;20037;-64
2021/08/01 12:53:00;;;;;;;5.15;3.60;;;20.90;99.90;;;;;;5032487;28;20028;-62